Time;durP1;ratioP1;P1;durP2;ratioP2;P2;SDS_P1;SDS_P2;PMS_P1;PMS_P2;Temp;Humidity;BMP_temperature;BMP_pressure;BME280_temperature;BME280_humidity;BME280_pressure;Samples;Min_cycle;Max_cycle;Signal;HPM_P1;HPM_P2
2023/06/06 00:01:03;;;;;;;0.20;0.20;;;;;;;;;;5081223;28;20048;-53
2023/06/06 00:03:29;;;;;;;0.20;0.20;;;;;;;;;;5092196;28;20138;-53
2023/06/06 00:05:55;;;;;;;0.20;0.20;;;;;;;;;;5093013;28;20050;-53
2023/06/06 00:08:23;;;;;;;0.20;0.20;;;;;;;;;;5092818;28;20047;-53
2023/06/06 00:10:49;;;;;;;0.10;0.10;;;;;;;;;;5092625;28;20040;-54
2023/06/06 00:13:15;;;;;;;0.20;0.20;;;;;;;;;;5092337;28;20488;-53
2023/06/06 00:15:41;;;;;;;0.20;0.20;;;;;;;;;;5092881;28;20089;-52
2023/06/06 00:18:06;;;;;;;0.20;0.20;;;;;;;;;;5074615;28;20093;-53
2023/06/06 00:20:32;;;;;;;0.20;0.20;;;;;;;;;;5092748;28;20403;-54
2023/06/06 00:22:59;;;;;;;0.20;0.20;;;;;;;;;;5077007;28;20040;-53
2023/06/06 00:25:25;;;;;;;0.20;0.20;;;;;;;;;;5096211;28;20043;-53
2023/06/06 00:27:50;;;;;;;0.20;0.20;;;;;;;;;;5078397;28;20146;-54
2023/06/06 00:30:16;;;;;;;0.20;0.20;;;;;;;;;;5093197;28;20062;-53
2023/06/06 00:32:41;;;;;;;0.10;0.10;;;;;;;;;;5059765;28;20059;-52
2023/06/06 00:35:07;;;;;;;0.20;0.20;;;;;;;;;;5054945;28;20503;-54
2023/06/06 00:37:33;;;;;;;0.20;0.20;;;;;;;;;;5092695;28;20048;-53
2023/06/06 00:39:59;;;;;;;0.20;0.20;;;;;;;;;;5095697;28;20048;-54
2023/06/06 00:42:25;;;;;;;0.20;0.20;;;;;;;;;;5076687;28;20043;-53
2023/06/06 00:44:50;;;;;;;0.20;0.20;;;;;;;;;;5095345;28;20043;-54
2023/06/06 00:47:16;;;;;;;0.20;0.20;;;;;;;;;;5096152;28;20051;-53
2023/06/06 00:49:44;;;;;;;0.20;0.20;;;;;;;;;;5095331;28;20129;-52
2023/06/06 00:52:10;;;;;;;;;;;;;;;;;;5095391;28;20302;-53
2023/06/06 00:54:36;;;;;;;0.20;0.20;;;;;;;;;;5095628;28;20129;-52
2023/06/06 00:57:02;;;;;;;0.13;0.13;;;;;;;;;;5095671;28;20496;-53
2023/06/06 00:59:27;;;;;;;0.10;0.10;;;;;;;;;;5095376;28;20361;-54
2023/06/06 01:01:53;;;;;;;0.20;0.20;;;;;;;;;;5095184;28;20052;-53
2023/06/06 01:04:20;;;;;;;0.20;0.20;;;;;;;;;;5095143;28;20536;-53
2023/06/06 01:06:46;;;;;;;0.20;0.20;;;;;;;;;;5087640;27;20073;-53
2023/06/06 01:09:13;;;;;;;0.20;0.20;;;;;;;;;;5095223;28;20043;-54
2023/06/06 01:11:59;;;;;;;0.20;0.20;;;;;;;;;;5094959;28;20153;-54
2023/06/06 01:14:33;;;;;;;0.10;0.10;;;;;;;;;;5078763;28;20048;-53
2023/06/06 01:17:02;;;;;;;0.20;0.20;;;;;;;;;;5095128;28;20273;-53
2023/06/06 01:19:29;;;;;;;0.20;0.20;;;;;;;;;;5095449;28;20113;-53
2023/06/06 01:21:57;;;;;;;0.20;0.20;;;;;;;;;;5089039;28;20064;-53
2023/06/06 01:24:24;;;;;;;0.20;0.20;;;;;;;;;;5073379;28;20352;-53
2023/06/06 01:26:50;;;;;;;0.20;0.20;;;;;;;;;;5056457;28;20465;-53
2023/06/06 01:29:15;;;;;;;0.20;0.20;;;;;;;;;;5072043;28;20500;-53
2023/06/06 01:31:43;;;;;;;0.20;0.20;;;;;;;;;;5072553;28;20055;-51
2023/06/06 01:34:12;;;;;;;0.20;0.20;;;;;;;;;;5076104;28;20039;-53
2023/06/06 01:36:45;;;;;;;0.20;0.20;;;;;;;;;;5094744;28;20321;-53
2023/06/06 01:39:15;;;;;;;0.20;0.20;;;;;;;;;;5095226;28;20071;-53
2023/06/06 01:41:41;;;;;;;0.20;0.20;;;;;;;;;;5047664;28;20075;-53
2023/06/06 01:44:08;;;;;;;0.20;0.20;;;;;;;;;;5050888;28;20361;-53
2023/06/06 01:46:34;;;;;;;0.10;0.10;;;;;;;;;;5046940;28;20130;-53
2023/06/06 01:49:00;;;;;;;0.20;0.20;;;;;;;;;;5072043;28;20372;-54
2023/06/06 01:51:26;;;;;;;0.20;0.20;;;;;;;;;;5077589;28;20998;-53
2023/06/06 01:53:53;;;;;;;0.20;0.20;;;;;;;;;;5075351;28;20079;-54
2023/06/06 01:56:18;;;;;;;0.20;0.20;;;;;;;;;;5074695;28;20321;-54
2023/06/06 01:58:44;;;;;;;0.20;0.20;;;;;;;;;;5073049;28;20462;-54
2023/06/06 02:01:10;;;;;;;0.20;0.20;;;;;;;;;;5074355;28;20050;-53
2023/06/06 02:03:36;;;;;;;0.20;0.20;;;;;;;;;;5073020;28;20081;-56
2023/06/06 02:06:03;;;;;;;0.20;0.20;;;;;;;;;;5073426;28;20568;-56
2023/06/06 02:08:29;;;;;;;0.20;0.20;;;;;;;;;;5075983;28;20069;-56
2023/06/06 02:10:55;;;;;;;0.20;0.20;;;;;;;;;;5086275;28;20143;-55
2023/06/06 02:13:21;;;;;;;0.20;0.20;;;;;;;;;;5093259;28;20487;-56
2023/06/06 02:15:46;;;;;;;0.20;0.20;;;;;;;;;;5081818;28;20295;-56
2023/06/06 02:18:12;;;;;;;0.15;0.15;;;;;;;;;;5094375;28;20044;-56
2023/06/06 02:20:38;;;;;;;0.20;0.20;;;;;;;;;;5094477;28;20112;-55
2023/06/06 02:23:03;;;;;;;0.10;0.10;;;;;;;;;;5094059;28;20051;-56
2023/06/06 02:25:29;;;;;;;0.20;0.20;;;;;;;;;;5093818;28;20055;-54
2023/06/06 02:27:55;;;;;;;0.20;0.20;;;;;;;;;;5093674;28;20047;-55
2023/06/06 02:30:22;;;;;;;0.20;0.20;;;;;;;;;;5077863;28;20165;-57
2023/06/06 02:32:50;;;;;;;0.15;0.15;;;;;;;;;;5093890;28;20071;-55
2023/06/06 02:35:18;;;;;;;0.10;0.10;;;;;;;;;;5093917;28;20500;-56
2023/06/06 02:37:44;;;;;;;0.20;0.20;;;;;;;;;;5093760;28;20043;-55
2023/06/06 02:40:10;;;;;;;0.20;0.20;;;;;;;;;;5094132;28;20044;-48
2023/06/06 02:42:38;;;;;;;0.20;0.20;;;;;;;;;;5094042;28;20142;-48
2023/06/06 02:45:05;;;;;;;0.20;0.20;;;;;;;;;;5092716;28;20048;-45
2023/06/06 02:47:31;;;;;;;0.10;0.10;;;;;;;;;;5075372;28;20163;-45
2023/06/06 02:49:56;;;;;;;0.10;0.10;;;;;;;;;;5093584;28;20047;-45
2023/06/06 02:52:22;;;;;;;0.20;0.20;;;;;;;;;;5093752;28;20040;-44
2023/06/06 02:54:48;;;;;;;0.20;0.20;;;;;;;;;;5093903;28;20090;-45
2023/06/06 02:57:14;;;;;;;0.20;0.20;;;;;;;;;;5093706;28;20044;-45
2023/06/06 02:59:39;;;;;;;0.20;0.20;;;;;;;;;;5064188;28;20055;-45
2023/06/06 03:02:05;;;;;;;0.20;0.20;;;;;;;;;;5094110;28;20051;-46
2023/06/06 03:04:31;;;;;;;0.20;0.20;;;;;;;;;;5094177;28;20055;-45
2023/06/06 03:06:56;;;;;;;0.20;0.20;;;;;;;;;;5093188;28;20078;-45
2023/06/06 03:09:24;;;;;;;0.20;0.20;;;;;;;;;;5093944;28;20055;-45
2023/06/06 03:11:49;;;;;;;0.20;0.20;;;;;;;;;;5093620;28;20584;-45
2023/06/06 03:14:15;;;;;;;0.20;0.20;;;;;;;;;;5093236;28;20039;-45
2023/06/06 03:16:41;;;;;;;0.20;0.20;;;;;;;;;;5092642;28;20183;-46
2023/06/06 03:19:07;;;;;;;0.20;0.20;;;;;;;;;;5093955;28;20056;-45
2023/06/06 03:21:34;;;;;;;0.20;0.20;;;;;;;;;;5093233;28;20098;-45
2023/06/06 03:24:00;;;;;;;0.20;0.20;;;;;;;;;;5093722;28;20124;-45
2023/06/06 03:26:26;;;;;;;0.20;0.20;;;;;;;;;;5093358;28;20074;-45
2023/06/06 03:28:52;;;;;;;0.20;0.20;;;;;;;;;;5093636;28;20051;-45
2023/06/06 03:31:23;;;;;;;0.20;0.20;;;;;;;;;;5093305;28;20309;-46
2023/06/06 03:33:49;;;;;;;0.20;0.20;;;;;;;;;;5093243;28;20100;-44
2023/06/06 03:36:16;;;;;;;0.20;0.20;;;;;;;;;;5092962;28;20105;-45
2023/06/06 03:38:42;;;;;;;0.20;0.20;;;;;;;;;;5093149;28;20409;-44
2023/06/06 03:41:08;;;;;;;0.20;0.20;;;;;;;;;;5093210;28;20063;-46
2023/06/06 03:43:34;;;;;;;0.20;0.20;;;;;;;;;;5074742;28;20355;-45
2023/06/06 03:46:00;;;;;;;0.20;0.20;;;;;;;;;;5093459;28;20401;-45
2023/06/06 03:48:26;;;;;;;0.10;0.10;;;;;;;;;;5093068;28;20050;-45
2023/06/06 03:50:52;;;;;;;0.20;0.20;;;;;;;;;;5092261;28;20439;-45
2023/06/06 03:53:17;;;;;;;0.20;0.20;;;;;;;;;;5074824;28;20044;-46
2023/06/06 03:55:44;;;;;;;0.20;0.20;;;;;;;;;;5074769;28;20499;-45
2023/06/06 03:58:10;;;;;;;0.20;0.20;;;;;;;;;;5096184;28;20039;-45
2023/06/06 04:00:37;;;;;;;0.20;0.20;;;;;;;;;;5096088;28;20078;-45
2023/06/06 04:03:03;;;;;;;0.20;0.20;;;;;;;;;;5096171;28;20498;-45
2023/06/06 04:05:30;;;;;;;0.20;0.20;;;;;;;;;;5096855;28;20160;-46
2023/06/06 04:07:56;;;;;;;0.20;0.20;;;;;;;;;;5095881;28;20094;-45
2023/06/06 04:10:21;;;;;;;0.20;0.20;;;;;;;;;;5096089;28;20052;-45
2023/06/06 04:12:47;;;;;;;0.20;0.20;;;;;;;;;;5096077;28;20419;-45
2023/06/06 04:15:12;;;;;;;0.20;0.20;;;;;;;;;;5096617;28;20218;-45
2023/06/06 04:17:38;;;;;;;0.20;0.20;;;;;;;;;;5096215;28;20040;-46
2023/06/06 04:20:05;;;;;;;0.20;0.20;;;;;;;;;;5096338;28;20340;-45
2023/06/06 04:22:30;;;;;;;0.10;0.10;;;;;;;;;;5095454;28;20039;-45
2023/06/06 04:24:56;;;;;;;0.10;0.10;;;;;;;;;;5096357;28;20086;-45
2023/06/06 04:27:23;;;;;;;0.20;0.20;;;;;;;;;;5096071;28;20055;-44
2023/06/06 04:29:50;;;;;;;0.20;0.20;;;;;;;;;;5096264;28;20550;-45
2023/06/06 04:32:18;;;;;;;0.20;0.20;;;;;;;;;;5077640;28;20044;-45
2023/06/06 04:34:45;;;;;;;0.10;0.10;;;;;;;;;;5072985;28;20068;-50
2023/06/06 04:37:13;;;;;;;0.10;0.10;;;;;;;;;;5072528;28;20503;-49
2023/06/06 04:39:39;;;;;;;0.10;0.10;;;;;;;;;;5090802;28;20059;-49
2023/06/06 04:42:06;;;;;;;0.20;0.20;;;;;;;;;;5068814;28;20054;-48
2023/06/06 04:44:32;;;;;;;0.20;0.20;;;;;;;;;;5078467;28;20052;-47
2023/06/06 04:47:03;;;;;;;0.20;0.20;;;;;;;;;;5074646;28;20078;-47
2023/06/06 04:49:30;;;;;;;0.20;0.20;;;;;;;;;;5078077;28;20052;-47
2023/06/06 04:51:59;;;;;;;0.20;0.20;;;;;;;;;;5077090;28;20071;-48
2023/06/06 04:54:25;;;;;;;0.20;0.20;;;;;;;;;;5079827;28;20234;-46
2023/06/06 04:56:51;;;;;;;0.25;0.25;;;;;;;;;;5095338;28;20124;-46
2023/06/06 04:59:21;;;;;;;0.20;0.20;;;;;;;;;;5095151;28;20487;-45
2023/06/06 05:01:47;;;;;;;0.20;0.20;;;;;;;;;;5093571;28;20466;-48
2023/06/06 05:04:13;;;;;;;0.20;0.20;;;;;;;;;;5090876;28;20504;-45
2023/06/06 05:06:40;;;;;;;0.20;0.20;;;;;;;;;;5108528;28;20126;-45
2023/06/06 05:09:07;;;;;;;0.20;0.20;;;;;;;;;;5095206;28;20339;-45
2023/06/06 05:11:33;;;;;;;0.10;0.10;;;;;;;;;;5090732;28;20093;-45
2023/06/06 05:13:58;;;;;;;0.10;0.10;;;;;;;;;;5081730;28;20055;-45
2023/06/06 05:16:25;;;;;;;0.10;0.10;;;;;;;;;;5091378;28;20131;-45
2023/06/06 05:18:50;;;;;;;0.20;0.20;;;;;;;;;;5095620;28;20079;-49
2023/06/06 05:21:16;;;;;;;0.20;0.20;;;;;;;;;;5088415;28;20080;-49
2023/06/06 05:23:41;;;;;;;0.20;0.20;;;;;;;;;;5074135;28;20055;-49
2023/06/06 05:26:07;;;;;;;0.15;0.15;;;;;;;;;;5076765;28;20056;-47
2023/06/06 05:28:32;;;;;;;0.20;0.20;;;;;;;;;;5086272;28;20093;-47
2023/06/06 05:30:58;;;;;;;0.20;0.20;;;;;;;;;;5093418;28;20082;-48
2023/06/06 05:33:25;;;;;;;0.20;0.20;;;;;;;;;;5091537;28;20086;-48
2023/06/06 05:35:52;;;;;;;0.20;0.20;;;;;;;;;;5088202;28;20043;-47
2023/06/06 05:38:19;;;;;;;0.20;0.20;;;;;;;;;;5091699;28;20054;-48
2023/06/06 05:40:45;;;;;;;0.20;0.20;;;;;;;;;;5078917;28;20047;-48
2023/06/06 05:43:10;;;;;;;0.20;0.20;;;;;;;;;;5091048;28;20089;-47
2023/06/06 05:45:36;;;;;;;0.20;0.20;;;;;;;;;;5081373;28;20163;-47
2023/06/06 05:48:02;;;;;;;0.20;0.20;;;;;;;;;;5067064;28;20193;-47
2023/06/06 05:50:28;;;;;;;0.20;0.20;;;;;;;;;;5068553;28;20368;-51
2023/06/06 05:52:53;;;;;;;0.20;0.20;;;;;;;;;;5069727;28;20271;-47
2023/06/06 05:55:35;;;;;;;0.20;0.20;;;;;;;;;;5079828;28;20051;-47
2023/06/06 05:58:01;;;;;;;0.20;0.20;;;;;;;;;;5066738;28;20040;-49
2023/06/06 06:00:28;;;;;;;0.20;0.20;;;;;;;;;;5066151;28;20048;-49
2023/06/06 06:02:56;;;;;;;0.20;0.20;;;;;;;;;;5055752;28;20109;-50
2023/06/06 06:05:22;;;;;;;0.20;0.20;;;;;;;;;;5090947;28;20484;-47
2023/06/06 06:07:47;;;;;;;0.20;0.20;;;;;;;;;;5105278;28;20068;-50
2023/06/06 06:10:14;;;;;;;0.20;0.20;;;;;;;;;;5069925;28;20591;-47
2023/06/06 06:12:40;;;;;;;0.20;0.20;;;;;;;;;;5087931;28;20109;-47
2023/06/06 06:15:06;;;;;;;0.20;0.20;;;;;;;;;;5087297;28;20105;-47
2023/06/06 06:17:31;;;;;;;0.10;0.10;;;;;;;;;;5088217;28;20040;-53
2023/06/06 06:19:57;;;;;;;0.20;0.20;;;;;;;;;;5090578;28;20044;-48
2023/06/06 06:22:23;;;;;;;0.20;0.20;;;;;;;;;;5097478;28;20354;-47
2023/06/06 06:24:49;;;;;;;0.20;0.20;;;;;;;;;;5091573;28;20767;-51
2023/06/06 06:27:15;;;;;;;0.20;0.20;;;;;;;;;;5092125;28;20857;-53
2023/06/06 06:29:40;;;;;;;0.20;0.20;;;;;;;;;;5076542;28;20046;-47
2023/06/06 06:32:06;;;;;;;0.20;0.20;;;;;;;;;;5083530;28;20143;-47
2023/06/06 06:34:33;;;;;;;0.20;0.20;;;;;;;;;;5086601;28;20049;-46
2023/06/06 06:36:59;;;;;;;0.20;0.20;;;;;;;;;;5083548;28;20048;-48
2023/06/06 06:39:25;;;;;;;0.20;0.20;;;;;;;;;;5088813;28;20043;-46
2023/06/06 06:41:52;;;;;;;0.20;0.20;;;;;;;;;;5090535;28;20423;-45
2023/06/06 06:44:18;;;;;;;0.10;0.10;;;;;;;;;;5078643;28;20047;-46
2023/06/06 06:46:44;;;;;;;0.20;0.20;;;;;;;;;;5080615;28;20058;-47
2023/06/06 06:49:13;;;;;;;0.20;0.20;;;;;;;;;;5085605;28;20055;-46
2023/06/06 06:51:40;;;;;;;0.20;0.20;;;;;;;;;;5079273;28;20097;-47
2023/06/06 06:54:05;;;;;;;0.20;0.20;;;;;;;;;;5072393;28;20040;-49
2023/06/06 06:56:31;;;;;;;0.13;0.13;;;;;;;;;;5072682;28;20044;-45
2023/06/06 06:58:57;;;;;;;0.20;0.20;;;;;;;;;;5064573;28;20047;-46
2023/06/06 07:01:27;;;;;;;0.20;0.20;;;;;;;;;;5063546;28;20233;-48
2023/06/06 07:03:53;;;;;;;0.20;0.20;;;;;;;;;;5055559;28;20240;-48
2023/06/06 07:06:20;;;;;;;0.15;0.15;;;;;;;;;;5053724;28;20389;-49
2023/06/06 07:08:45;;;;;;;0.20;0.20;;;;;;;;;;5068298;28;20044;-47
2023/06/06 07:11:11;;;;;;;0.20;0.20;;;;;;;;;;5061623;28;20046;-48
2023/06/06 07:13:37;;;;;;;0.20;0.20;;;;;;;;;;5062841;28;20056;-48
2023/06/06 07:16:02;;;;;;;0.20;0.20;;;;;;;;;;5081477;28;20119;-48
2023/06/06 07:18:28;;;;;;;0.20;0.20;;;;;;;;;;5086705;28;20310;-47
2023/06/06 07:20:54;;;;;;;0.20;0.20;;;;;;;;;;5078915;28;20062;-48
2023/06/06 07:23:19;;;;;;;0.20;0.20;;;;;;;;;;5066397;28;20420;-47
2023/06/06 07:25:45;;;;;;;0.20;0.20;;;;;;;;;;5075945;28;20123;-47
2023/06/06 07:28:13;;;;;;;0.20;0.20;;;;;;;;;;5081473;28;20130;-49
2023/06/06 07:30:38;;;;;;;0.10;0.10;;;;;;;;;;5078243;28;20044;-48
2023/06/06 07:33:04;;;;;;;0.20;0.20;;;;;;;;;;5082898;28;20054;-49
2023/06/06 07:35:32;;;;;;;0.20;0.20;;;;;;;;;;5066756;28;20139;-48
2023/06/06 07:37:58;;;;;;;0.20;0.20;;;;;;;;;;5083192;28;20105;-49
2023/06/06 07:40:24;;;;;;;0.20;0.20;;;;;;;;;;5083691;28;20758;-47
2023/06/06 07:42:50;;;;;;;0.20;0.20;;;;;;;;;;5085059;28;20050;-49
2023/06/06 07:45:16;;;;;;;0.20;0.20;;;;;;;;;;5083932;28;20382;-49
2023/06/06 07:47:42;;;;;;;0.20;0.20;;;;;;;;;;5086133;28;20091;-48
2023/06/06 07:50:08;;;;;;;0.20;0.20;;;;;;;;;;5075740;28;20044;-49
2023/06/06 07:52:34;;;;;;;0.20;0.20;;;;;;;;;;5078996;28;20043;-49
2023/06/06 07:55:00;;;;;;;0.20;0.20;;;;;;;;;;5071409;28;20051;-48
2023/06/06 07:57:27;;;;;;;0.28;0.20;;;;;;;;;;5072603;28;20040;-51
2023/06/06 07:59:53;;;;;;;0.20;0.20;;;;;;;;;;5074601;28;21224;-47
2023/06/06 08:02:19;;;;;;;0.20;0.20;;;;;;;;;;5074670;28;20562;-47
2023/06/06 08:04:45;;;;;;;0.20;0.20;;;;;;;;;;5078685;28;20117;-49
2023/06/06 08:07:13;;;;;;;0.20;0.20;;;;;;;;;;5073256;28;20245;-47
2023/06/06 08:09:39;;;;;;;0.10;0.10;;;;;;;;;;5066642;28;20059;-49
2023/06/06 08:12:05;;;;;;;0.20;0.20;;;;;;;;;;5074494;28;20154;-47
2023/06/06 08:14:33;;;;;;;0.20;0.20;;;;;;;;;;5068711;28;20079;-47
2023/06/06 08:17:02;;;;;;;0.20;0.20;;;;;;;;;;5058921;28;20056;-47
2023/06/06 08:19:28;;;;;;;0.20;0.20;;;;;;;;;;5071624;28;20047;-51
2023/06/06 08:21:53;;;;;;;0.20;0.20;;;;;;;;;;5068996;28;20048;-48
2023/06/06 08:24:19;;;;;;;0.20;0.20;;;;;;;;;;5064725;28;20283;-49
2023/06/06 08:26:45;;;;;;;0.20;0.20;;;;;;;;;;5074238;28;20047;-47
2023/06/06 08:29:10;;;;;;;0.20;0.20;;;;;;;;;;5068471;28;20047;-46
2023/06/06 08:31:36;;;;;;;0.20;0.20;;;;;;;;;;5071653;28;20059;-47
2023/06/06 08:34:02;;;;;;;0.20;0.20;;;;;;;;;;5066465;28;20077;-47
2023/06/06 08:36:27;;;;;;;0.20;0.20;;;;;;;;;;5064823;28;20047;-47
2023/06/06 08:38:53;;;;;;;0.20;0.20;;;;;;;;;;5063212;28;20473;-44
2023/06/06 08:41:18;;;;;;;0.17;0.17;;;;;;;;;;5053759;28;20047;-46
2023/06/06 08:43:46;;;;;;;0.20;0.20;;;;;;;;;;5047908;28;20706;-45
2023/06/06 08:46:12;;;;;;;0.20;0.20;;;;;;;;;;5071038;28;20815;-45
2023/06/06 08:48:40;;;;;;;0.20;0.20;;;;;;;;;;5081033;28;20521;-46
2023/06/06 08:51:07;;;;;;;0.10;0.10;;;;;;;;;;5072980;28;20530;-47
2023/06/06 08:53:33;;;;;;;0.20;0.20;;;;;;;;;;5076232;28;20059;-46
2023/06/06 08:56:00;;;;;;;0.13;0.13;;;;;;;;;;5073604;28;20055;-45
2023/06/06 08:58:26;;;;;;;0.20;0.20;;;;;;;;;;5077186;28;20039;-45
2023/06/06 09:00:53;;;;;;;0.20;0.20;;;;;;;;;;5077899;28;20056;-47
2023/06/06 09:03:19;;;;;;;0.20;0.20;;;;;;;;;;5075118;28;20079;-45
2023/06/06 09:05:46;;;;;;;0.20;0.20;;;;;;;;;;5055469;28;20044;-45
2023/06/06 09:08:12;;;;;;;0.20;0.20;;;;;;;;;;5085857;28;20392;-45
2023/06/06 09:10:38;;;;;;;0.10;0.10;;;;;;;;;;5085907;28;20610;-46
2023/06/06 09:13:03;;;;;;;0.20;0.20;;;;;;;;;;5076411;28;20068;-45
2023/06/06 09:15:29;;;;;;;0.20;0.20;;;;;;;;;;5077534;28;20054;-46
2023/06/06 09:17:54;;;;;;;0.20;0.20;;;;;;;;;;5084826;28;20078;-45
2023/06/06 09:20:21;;;;;;;0.20;0.20;;;;;;;;;;5089340;28;20854;-46
2023/06/06 09:22:47;;;;;;;0.10;0.10;;;;;;;;;;5076581;28;20059;-45
2023/06/06 09:25:17;;;;;;;0.20;0.20;;;;;;;;;;5067928;28;20502;-47
2023/06/06 09:27:43;;;;;;;0.15;0.15;;;;;;;;;;5016528;28;20051;-47
2023/06/06 09:30:25;;;;;;;0.20;0.20;;;;;;;;;;5045189;28;20635;-46
2023/06/06 09:32:51;;;;;;;0.20;0.20;;;;;;;;;;5022615;28;20137;-47
2023/06/06 09:35:17;;;;;;;0.20;0.20;;;;;;;;;;5037458;28;20291;-46
2023/06/06 09:37:44;;;;;;;0.20;0.20;;;;;;;;;;5036150;28;20141;-46
2023/06/06 09:40:14;;;;;;;0.20;0.20;;;;;;;;;;5030396;28;20786;-46
2023/06/06 09:42:42;;;;;;;0.20;0.20;;;;;;;;;;5024655;28;20044;-45
2023/06/06 09:45:11;;;;;;;0.10;0.10;;;;;;;;;;5022820;28;20048;-45
2023/06/06 09:47:39;;;;;;;0.20;0.20;;;;;;;;;;5049709;28;20048;-46
2023/06/06 09:50:05;;;;;;;0.20;0.20;;;;;;;;;;5041257;28;20052;-47
2023/06/06 09:52:31;;;;;;;0.10;0.10;;;;;;;;;;5045394;28;20093;-48
2023/06/06 09:54:56;;;;;;;0.20;0.20;;;;;;;;;;5046509;28;20492;-47
2023/06/06 09:57:22;;;;;;;0.20;0.20;;;;;;;;;;5043806;28;20112;-48
2023/06/06 09:59:48;;;;;;;0.20;0.20;;;;;;;;;;5047981;28;20035;-48
2023/06/06 10:02:16;;;;;;;0.20;0.20;;;;;;;;;;5050169;28;20112;-48
2023/06/06 10:04:42;;;;;;;0.10;0.10;;;;;;;;;;5052748;28;20451;-50
2023/06/06 10:07:09;;;;;;;0.20;0.20;;;;;;;;;;5061566;28;20352;-48
2023/06/06 10:09:35;;;;;;;0.20;0.20;;;;;;;;;;5030122;28;20055;-47
2023/06/06 10:12:00;;;;;;;0.20;0.20;;;;;;;;;;5050665;28;20044;-48
2023/06/06 10:14:28;;;;;;;0.20;0.20;;;;;;;;;;5058157;28;20215;-47
2023/06/06 10:16:53;;;;;;;0.20;0.20;;;;;;;;;;5031035;28;20306;-47
2023/06/06 10:19:20;;;;;;;0.20;0.20;;;;;;;;;;5049716;28;20738;-48
2023/06/06 10:21:46;;;;;;;0.20;0.20;;;;;;;;;;5051602;28;20142;-47
2023/06/06 10:24:15;;;;;;;0.20;0.20;;;;;;;;;;5047508;28;20043;-47
2023/06/06 10:26:51;;;;;;;0.13;0.13;;;;;;;;;;5049957;28;20209;-49
2023/06/06 10:29:25;;;;;;;0.20;0.20;;;;;;;;;;5047464;28;20043;-48
2023/06/06 10:31:56;;;;;;;0.20;0.20;;;;;;;;;;5030650;28;20047;-48
2023/06/06 10:34:25;;;;;;;0.10;0.10;;;;;;;;;;5053903;28;20036;-47
2023/06/06 10:36:51;;;;;;;0.10;0.10;;;;;;;;;;5049789;28;20504;-47
2023/06/06 10:39:17;;;;;;;0.15;0.15;;;;;;;;;;5038403;28;20059;-49
2023/06/06 10:42:03;;;;;;;0.10;0.10;;;;;;;;;;5036333;28;20104;-56
2023/06/06 10:44:35;;;;;;;0.20;0.20;;;;;;;;;;5016369;28;20288;-47
2023/06/06 10:47:20;;;;;;;0.20;0.20;;;;;;;;;;5035767;28;20539;-45
2023/06/06 10:50:06;;;;;;;0.20;0.20;;;;;;;;;;5027400;28;20051;-45
2023/06/06 10:52:39;;;;;;;0.20;0.20;;;;;;;;;;5026135;28;20040;-46
2023/06/06 10:55:13;;;;;;;0.30;0.30;;;;;;;;;;5039400;28;20048;-45
2023/06/06 10:57:41;;;;;;;0.20;0.20;;;;;;;;;;5048953;28;20047;-45
2023/06/06 11:00:09;;;;;;;0.10;0.10;;;;;;;;;;5047349;28;20044;-45
2023/06/06 11:02:35;;;;;;;0.20;0.20;;;;;;;;;;5023812;28;20138;-45
2023/06/06 11:05:00;;;;;;;0.20;0.20;;;;;;;;;;5048288;28;20072;-45
2023/06/06 11:07:27;;;;;;;0.20;0.20;;;;;;;;;;5041710;28;20154;-45
2023/06/06 11:09:54;;;;;;;0.20;0.20;;;;;;;;;;5049973;28;20252;-46
2023/06/06 11:14:56;;;;;;;0.20;0.20;;;;;;;;;;5123446;27;20246;-48
2023/06/06 11:17:27;;;;;;;0.20;0.20;;;;;;;;;;5104190;27;20375;-49
2023/06/06 11:19:54;;;;;;;0.20;0.20;;;;;;;;;;5102875;27;20088;-47
2023/06/06 11:22:24;;;;;;;0.20;0.20;;;;;;;;;;5095637;27;20677;-48
2023/06/06 11:24:50;;;;;;;0.20;0.20;;;;;;;;;;5079875;27;20051;-47
2023/06/06 11:27:17;;;;;;;0.20;0.20;;;;;;;;;;5087163;27;20047;-47
2023/06/06 11:29:43;;;;;;;0.20;0.20;;;;;;;;;;5090180;27;20427;-46
2023/06/06 11:32:09;;;;;;;0.20;0.20;;;;;;;;;;5063947;27;20410;-47
2023/06/06 11:34:35;;;;;;;0.20;0.20;;;;;;;;;;5079750;27;20107;-48
2023/06/06 11:37:00;;;;;;;0.20;0.20;;;;;;;;;;5080052;27;20553;-48
2023/06/06 11:39:26;;;;;;;0.20;0.20;;;;;;;;;;5080658;27;20465;-47
2023/06/06 11:41:52;;;;;;;0.20;0.20;;;;;;;;;;5081126;27;20684;-49
2023/06/06 11:44:18;;;;;;;0.20;0.20;;;;;;;;;;5082703;27;20047;-47
2023/06/06 11:46:51;;;;;;;0.20;0.20;;;;;;;;;;5070048;27;20111;-46
2023/06/06 11:49:20;;;;;;;0.20;0.20;;;;;;;;;;5081726;27;20119;-49
2023/06/06 11:52:00;;;;;;;0.20;0.20;;;;;;;;;;5057452;27;20656;-46
2023/06/06 11:54:27;;;;;;;0.20;0.20;;;;;;;;;;5083914;27;20143;-49
2023/06/06 11:56:57;;;;;;;0.20;0.20;;;;;;;;;;5083851;27;20120;-47
2023/06/06 11:59:22;;;;;;;0.13;0.13;;;;;;;;;;5084977;27;20039;-48
2023/06/06 12:01:49;;;;;;;0.20;0.20;;;;;;;;;;5089243;27;20077;-46
2023/06/06 12:04:15;;;;;;;0.20;0.20;;;;;;;;;;5087258;27;20330;-48
2023/06/06 12:06:47;;;;;;;0.20;0.20;;;;;;;;;;5072952;27;20359;-48
2023/06/06 12:09:13;;;;;;;0.20;0.20;;;;;;;;;;5066198;27;20349;-48
2023/06/06 12:11:48;;;;;;;0.17;0.17;;;;;;;;;;5069344;27;20178;-48
2023/06/06 12:14:13;;;;;;;0.20;0.20;;;;;;;;;;5067775;27;20427;-47
2023/06/06 12:16:39;;;;;;;0.20;0.20;;;;;;;;;;5085192;27;20647;-47
2023/06/06 12:19:10;;;;;;;0.20;0.20;;;;;;;;;;5090050;27;20051;-46
2023/06/06 12:21:51;;;;;;;0.20;0.20;;;;;;;;;;5075616;27;20250;-48
2023/06/06 12:24:18;;;;;;;0.20;0.20;;;;;;;;;;5073410;27;20050;-47
2023/06/06 12:26:51;;;;;;;0.20;0.20;;;;;;;;;;5068975;27;20059;-49
2023/06/06 12:29:18;;;;;;;0.20;0.20;;;;;;;;;;5071298;27;20582;-48
2023/06/06 12:31:45;;;;;;;0.20;0.20;;;;;;;;;;5065413;28;20051;-47
2023/06/06 12:34:13;;;;;;;0.20;0.20;;;;;;;;;;5071945;28;20363;-47
2023/06/06 12:36:38;;;;;;;0.20;0.20;;;;;;;;;;5078443;27;20478;-47
2023/06/06 12:39:07;;;;;;;0.20;0.20;;;;;;;;;;5074747;27;20217;-47
2023/06/06 12:41:39;;;;;;;0.20;0.20;;;;;;;;;;5060065;28;20777;-48
2023/06/06 12:44:08;;;;;;;0.20;0.20;;;;;;;;;;5075968;28;20047;-47
2023/06/06 12:46:34;;;;;;;0.20;0.20;;;;;;;;;;5073525;28;20044;-48
2023/06/06 12:49:00;;;;;;;0.17;0.17;;;;;;;;;;5071109;27;20466;-49
2023/06/06 12:51:26;;;;;;;0.20;0.20;;;;;;;;;;5055479;28;20492;-48
2023/06/06 12:53:52;;;;;;;0.10;0.10;;;;;;;;;;5053741;28;20043;-50
2023/06/06 12:56:17;;;;;;;0.20;0.20;;;;;;;;;;5078504;27;20470;-48
2023/06/06 12:58:45;;;;;;;0.20;0.20;;;;;;;;;;5076457;28;20383;-48
2023/06/06 13:01:11;;;;;;;0.20;0.20;;;;;;;;;;5079651;28;20043;-48
2023/06/06 13:03:37;;;;;;;0.10;0.10;;;;;;;;;;5075501;28;20085;-52
2023/06/06 13:06:03;;;;;;;0.20;0.20;;;;;;;;;;5079327;28;20122;-47
2023/06/06 13:08:28;;;;;;;0.20;0.20;;;;;;;;;;5077457;28;20709;-47
2023/06/06 13:11:05;;;;;;;0.30;0.30;;;;;;;;;;5078841;28;20079;-48
2023/06/06 13:13:32;;;;;;;0.20;0.20;;;;;;;;;;5081367;28;20130;-48
2023/06/06 13:15:57;;;;;;;0.20;0.20;;;;;;;;;;5076650;28;20506;-49
2023/06/06 13:18:23;;;;;;;0.20;0.20;;;;;;;;;;5071735;28;20660;-48
2023/06/06 13:20:51;;;;;;;0.20;0.20;;;;;;;;;;5077004;28;20131;-47
2023/06/06 13:23:16;;;;;;;0.20;0.20;;;;;;;;;;5058495;28;20507;-49
2023/06/06 13:25:42;;;;;;;0.20;0.20;;;;;;;;;;5068997;28;20297;-49
2023/06/06 13:28:07;;;;;;;0.20;0.20;;;;;;;;;;5077880;28;20054;-49
2023/06/06 13:30:33;;;;;;;0.20;0.20;;;;;;;;;;5079336;28;20055;-48
2023/06/06 13:32:59;;;;;;;0.10;0.10;;;;;;;;;;5076539;28;20518;-47
2023/06/06 13:35:25;;;;;;;0.20;0.20;;;;;;;;;;5080125;27;20043;-48
2023/06/06 13:37:50;;;;;;;0.20;0.20;;;;;;;;;;5079310;27;20051;-47
2023/06/06 13:40:16;;;;;;;0.10;0.10;;;;;;;;;;5079295;27;20492;-48
2023/06/06 13:42:43;;;;;;;0.20;0.20;;;;;;;;;;5078053;28;20635;-49
2023/06/06 13:45:09;;;;;;;0.20;0.20;;;;;;;;;;5078962;28;20574;-48
2023/06/06 13:47:35;;;;;;;0.20;0.20;;;;;;;;;;5079085;28;20737;-47
2023/06/06 13:50:00;;;;;;;0.20;0.20;;;;;;;;;;5080568;28;20404;-47
2023/06/06 13:52:26;;;;;;;0.20;0.20;;;;;;;;;;5078961;28;20047;-47
2023/06/06 13:54:52;;;;;;;0.20;0.20;;;;;;;;;;5077416;27;20055;-47
2023/06/06 13:57:17;;;;;;;0.20;0.20;;;;;;;;;;5080130;28;20046;-50
2023/06/06 13:59:43;;;;;;;0.20;0.20;;;;;;;;;;5078030;28;20101;-48
2023/06/06 14:02:09;;;;;;;0.20;0.20;;;;;;;;;;5080873;28;20055;-47
2023/06/06 14:04:35;;;;;;;0.20;0.20;;;;;;;;;;5078440;28;20366;-47
2023/06/06 14:07:01;;;;;;;0.20;0.20;;;;;;;;;;5077163;28;20043;-50
2023/06/06 14:09:30;;;;;;;0.20;0.20;;;;;;;;;;5080585;28;20050;-48
2023/06/06 14:11:57;;;;;;;0.20;0.20;;;;;;;;;;5078001;28;20100;-47
2023/06/06 14:14:23;;;;;;;0.20;0.20;;;;;;;;;;5079734;28;20441;-47
2023/06/06 14:16:49;;;;;;;0.20;0.20;;;;;;;;;;5078098;28;20047;-48
2023/06/06 14:19:24;;;;;;;0.10;0.10;;;;;;;;;;5076738;28;20118;-48
2023/06/06 14:22:20;;;;;;;0.20;0.20;;;;;;;;;;5079042;28;20344;-47
2023/06/06 14:24:36;;;;;;;0.10;0.10;;;;;;;;;;5057047;28;20272;-47
2023/06/06 14:27:02;;;;;;;0.20;0.20;;;;;;;;;;5077287;28;20047;-46
2023/06/06 14:29:27;;;;;;;0.20;0.20;;;;;;;;;;5053116;27;20051;-48
2023/06/06 14:31:53;;;;;;;0.20;0.20;;;;;;;;;;5079195;28;20443;-47
2023/06/06 14:34:18;;;;;;;0.20;0.20;;;;;;;;;;5079572;28;20123;-48
2023/06/06 14:36:44;;;;;;;0.20;0.20;;;;;;;;;;5078845;28;20369;-47
2023/06/06 14:39:09;;;;;;;0.20;0.20;;;;;;;;;;5081769;27;20176;-47
2023/06/06 14:41:35;;;;;;;0.20;0.20;;;;;;;;;;5078741;27;20264;-48
2023/06/06 14:44:01;;;;;;;0.20;0.20;;;;;;;;;;5077501;28;20047;-47